T7RCW EGPH-EGCC
Flight info
| Callsign | T7RCW |
|---|---|
| Flight time | 0h 41m |
| Altitude | 24000 |
| Route | GOSAM P600 FENIK/N0436F250 L612 BEBNI/N0425F230 L612 LAKEY |
| Aircraft | C25C/M-SDE2E3FGHRWXY/LB1 |
Departure
| Time | 2026-04-25 20:25 |
|---|---|
| Airport | Edinburgh Airport (EGPH) |
Arrival
| Time | 2026-04-25 21:07 |
|---|---|
| Airport | Manchester Airport (EGCC) |
| Time | Latitude | Longitude | Altitude | Speed | Heading |
|---|---|---|---|---|---|
| 2026-04-25 20:08 | 55.94802 | -3.34629 | 110 ft | 0 kts | 154° |
| 2026-04-25 20:17 | 55.94796 | -3.34637 | 109 ft | 7 kts | 225° |
| 2026-04-25 20:17 | 55.94795 | -3.34786 | 109 ft | 13 kts | 275° |
| 2026-04-25 20:18 | 55.94827 | -3.34949 | 108 ft | 16 kts | 298° |
| 2026-04-25 20:18 | 55.94884 | -3.35132 | 106 ft | 18 kts | 298° |
| 2026-04-25 20:18 | 55.94944 | -3.35334 | 105 ft | 19 kts | 299° |
| 2026-04-25 20:18 | 55.95011 | -3.35548 | 103 ft | 20 kts | 299° |
| 2026-04-25 20:19 | 55.95079 | -3.35763 | 102 ft | 12 kts | 298° |
| 2026-04-25 20:19 | 55.95061 | -3.35851 | 102 ft | 11 kts | 258° |
| 2026-04-25 20:19 | 55.95089 | -3.35981 | 103 ft | 12 kts | 294° |
| 2026-04-25 20:19 | 55.95119 | -3.36134 | 102 ft | 14 kts | 289° |
| 2026-04-25 20:20 | 55.95125 | -3.36304 | 103 ft | 14 kts | 243° |
| 2026-04-25 20:20 | 55.95077 | -3.36452 | 106 ft | 13 kts | 239° |
| 2026-04-25 20:20 | 55.95025 | -3.36604 | 106 ft | 16 kts | 239° |
| 2026-04-25 20:20 | 55.94966 | -3.36778 | 105 ft | 17 kts | 238° |
| 2026-04-25 20:21 | 55.94896 | -3.36979 | 102 ft | 20 kts | 239° |
| 2026-04-25 20:21 | 55.94823 | -3.37198 | 103 ft | 21 kts | 239° |
| 2026-04-25 20:21 | 55.94749 | -3.37417 | 107 ft | 20 kts | 239° |
| 2026-04-25 20:21 | 55.94678 | -3.37627 | 110 ft | 19 kts | 239° |
| 2026-04-25 20:22 | 55.94616 | -3.37811 | 109 ft | 18 kts | 239° |
| 2026-04-25 20:22 | 55.94590 | -3.37907 | 108 ft | 9 kts | 265° |
| 2026-04-25 20:22 | 55.94610 | -3.37969 | 110 ft | 0 kts | 330° |
| 2026-04-25 20:22 | 55.94611 | -3.37970 | 110 ft | 0 kts | 330° |
| 2026-04-25 20:23 | 55.94617 | -3.37976 | 110 ft | 0 kts | 330° |
| 2026-04-25 20:23 | 55.94620 | -3.37978 | 109 ft | 0 kts | 331° |
| 2026-04-25 20:23 | 55.94630 | -3.37989 | 110 ft | 4 kts | 331° |
| 2026-04-25 20:23 | 55.94666 | -3.38027 | 112 ft | 8 kts | 329° |
| 2026-04-25 20:24 | 55.94714 | -3.38055 | 114 ft | 7 kts | 14° |
| 2026-04-25 20:24 | 55.94741 | -3.38007 | 115 ft | 0 kts | 58° |
| 2026-04-25 20:24 | 55.94749 | -3.37983 | 114 ft | 10 kts | 58° |
| 2026-04-25 20:25 | 55.94942 | -3.37413 | 109 ft | 109 kts | 59° |
| 2026-04-25 20:25 | 55.95437 | -3.35989 | 870 ft | 156 kts | 59° |
| 2026-04-25 20:25 | 55.96064 | -3.34116 | 1858 ft | 196 kts | 62° |
| 2026-04-25 20:25 | 55.96792 | -3.31873 | 2885 ft | 220 kts | 61° |
| 2026-04-25 20:26 | 55.97611 | -3.29437 | 3958 ft | 240 kts | 59° |
| 2026-04-25 20:26 | 55.98520 | -3.26731 | 4676 ft | 262 kts | 59° |
| 2026-04-25 20:26 | 55.99455 | -3.23897 | 5361 ft | 266 kts | 58° |
| 2026-04-25 20:26 | 56.00415 | -3.21057 | 6136 ft | 267 kts | 56° |
| 2026-04-25 20:27 | 56.01242 | -3.19461 | 6636 ft | 266 kts | 33° |
| 2026-04-25 20:27 | 56.02978 | -3.18595 | 7346 ft | 262 kts | 355° |
| 2026-04-25 20:27 | 56.05082 | -3.20468 | 8250 ft | 259 kts | 308° |
| 2026-04-25 20:27 | 56.05401 | -3.21346 | 8477 ft | 260 kts | 296° |
| 2026-04-25 20:28 | 56.05960 | -3.26606 | 10053 ft | 263 kts | 269° |
| 2026-04-25 20:28 | 56.05725 | -3.29861 | 11016 ft | 267 kts | 251° |
| 2026-04-25 20:28 | 56.04923 | -3.32924 | 12019 ft | 270 kts | 242° |
| 2026-04-25 20:28 | 56.04039 | -3.35861 | 13185 ft | 274 kts | 241° |
| 2026-04-25 20:29 | 56.03169 | -3.38920 | 14332 ft | 279 kts | 245° |
| 2026-04-25 20:29 | 56.02222 | -3.41960 | 15321 ft | 284 kts | 227° |
| 2026-04-25 20:29 | 56.00550 | -3.43851 | 16336 ft | 289 kts | 204° |
| 2026-04-25 20:29 | 55.98596 | -3.44861 | 17349 ft | 295 kts | 194° |
| 2026-04-25 20:30 | 55.96577 | -3.45685 | 18382 ft | 300 kts | 195° |
| 2026-04-25 20:30 | 55.94542 | -3.46642 | 19326 ft | 305 kts | 198° |
| 2026-04-25 20:30 | 55.92486 | -3.47691 | 20262 ft | 310 kts | 198° |
| 2026-04-25 20:30 | 55.90390 | -3.48737 | 21234 ft | 315 kts | 198° |
| 2026-04-25 20:31 | 55.88256 | -3.49769 | 22187 ft | 320 kts | 198° |
| 2026-04-25 20:31 | 55.86079 | -3.50818 | 23095 ft | 328 kts | 198° |
| 2026-04-25 20:31 | 55.83826 | -3.51919 | 23702 ft | 344 kts | 198° |
| 2026-04-25 20:31 | 55.81443 | -3.53080 | 24004 ft | 365 kts | 198° |
| 2026-04-25 20:32 | 55.78927 | -3.54304 | 24246 ft | 384 kts | 198° |
| 2026-04-25 20:32 | 55.76294 | -3.55571 | 24489 ft | 399 kts | 197° |
| 2026-04-25 20:32 | 55.73579 | -3.56887 | 24735 ft | 410 kts | 197° |
| 2026-04-25 20:32 | 55.70811 | -3.58219 | 24983 ft | 413 kts | 197° |
| 2026-04-25 20:33 | 55.68037 | -3.59559 | 25168 ft | 414 kts | 197° |
| 2026-04-25 20:33 | 55.65258 | -3.60892 | 25225 ft | 414 kts | 197° |
| 2026-04-25 20:33 | 55.62489 | -3.62233 | 25251 ft | 416 kts | 197° |
| 2026-04-25 20:33 | 55.60629 | -3.63124 | 25249 ft | 418 kts | 197° |
| 2026-04-25 20:34 | 55.56866 | -3.64927 | 25253 ft | 420 kts | 197° |
| 2026-04-25 20:34 | 55.54044 | -3.66277 | 25250 ft | 420 kts | 197° |
| 2026-04-25 20:34 | 55.51214 | -3.67631 | 25253 ft | 421 kts | 197° |
| 2026-04-25 20:34 | 55.48390 | -3.68976 | 25251 ft | 421 kts | 197° |
| 2026-04-25 20:35 | 55.45563 | -3.70325 | 25251 ft | 421 kts | 197° |
| 2026-04-25 20:35 | 55.42739 | -3.71672 | 25247 ft | 421 kts | 197° |
| 2026-04-25 20:35 | 55.39912 | -3.73011 | 25245 ft | 421 kts | 197° |
| 2026-04-25 20:35 | 55.37086 | -3.74356 | 25243 ft | 421 kts | 197° |
| 2026-04-25 20:36 | 55.34260 | -3.75692 | 25245 ft | 421 kts | 197° |
| 2026-04-25 20:36 | 55.31433 | -3.77034 | 25244 ft | 421 kts | 197° |
| 2026-04-25 20:36 | 55.28602 | -3.78367 | 25243 ft | 421 kts | 197° |
| 2026-04-25 20:36 | 55.25777 | -3.79677 | 25243 ft | 422 kts | 195° |
| 2026-04-25 20:37 | 55.22837 | -3.80018 | 25233 ft | 427 kts | 178° |
| 2026-04-25 20:37 | 55.19924 | -3.78903 | 25234 ft | 432 kts | 161° |
| 2026-04-25 20:37 | 55.17222 | -3.76592 | 25237 ft | 434 kts | 154° |
| 2026-04-25 20:37 | 55.14565 | -3.74052 | 25242 ft | 435 kts | 153° |
| 2026-04-25 20:38 | 55.11938 | -3.71439 | 25242 ft | 435 kts | 153° |
| 2026-04-25 20:38 | 55.09317 | -3.68938 | 25246 ft | 435 kts | 154° |
| 2026-04-25 20:38 | 55.06617 | -3.66420 | 25245 ft | 435 kts | 154° |
| 2026-04-25 20:38 | 55.03957 | -3.63908 | 25245 ft | 435 kts | 154° |
| 2026-04-25 20:39 | 55.01297 | -3.61365 | 25246 ft | 435 kts | 153° |
| 2026-04-25 20:39 | 54.98639 | -3.58844 | 25243 ft | 436 kts | 154° |
| 2026-04-25 20:39 | 54.95975 | -3.56330 | 25241 ft | 435 kts | 154° |
| 2026-04-25 20:39 | 54.94211 | -3.54682 | 25241 ft | 435 kts | 154° |
| 2026-04-25 20:40 | 54.90649 | -3.51328 | 25238 ft | 435 kts | 154° |
| 2026-04-25 20:40 | 54.87982 | -3.48816 | 25237 ft | 435 kts | 154° |
| 2026-04-25 20:40 | 54.85321 | -3.46322 | 25238 ft | 435 kts | 154° |
| 2026-04-25 20:40 | 54.82656 | -3.43826 | 25240 ft | 435 kts | 154° |
| 2026-04-25 20:41 | 54.79989 | -3.41337 | 25237 ft | 435 kts | 154° |
| 2026-04-25 20:41 | 54.77322 | -3.38842 | 25237 ft | 436 kts | 154° |
| 2026-04-25 20:41 | 54.74653 | -3.36355 | 25237 ft | 436 kts | 154° |
| 2026-04-25 20:41 | 54.71975 | -3.33899 | 25237 ft | 435 kts | 156° |
| 2026-04-25 20:42 | 54.69198 | -3.31848 | 25236 ft | 434 kts | 159° |
| 2026-04-25 20:42 | 54.66431 | -3.29750 | 25236 ft | 435 kts | 158° |
| 2026-04-25 20:42 | 54.63663 | -3.27634 | 25236 ft | 435 kts | 158° |
| 2026-04-25 20:42 | 54.60892 | -3.25554 | 25238 ft | 435 kts | 159° |
| 2026-04-25 20:43 | 54.58108 | -3.23490 | 25237 ft | 435 kts | 159° |
| 2026-04-25 20:43 | 54.55330 | -3.21416 | 25148 ft | 437 kts | 159° |
| 2026-04-25 20:43 | 54.52537 | -3.19319 | 24908 ft | 435 kts | 158° |
| 2026-04-25 20:43 | 54.49811 | -3.17287 | 24666 ft | 433 kts | 159° |
| 2026-04-25 20:44 | 54.47037 | -3.15224 | 24319 ft | 433 kts | 159° |
| 2026-04-25 20:44 | 54.44293 | -3.13192 | 23966 ft | 426 kts | 159° |
| 2026-04-25 20:44 | 54.41588 | -3.11178 | 23578 ft | 425 kts | 159° |
| 2026-04-25 20:44 | 54.38840 | -3.09148 | 23265 ft | 422 kts | 159° |
| 2026-04-25 20:45 | 54.37051 | -3.07821 | 22928 ft | 424 kts | 159° |
| 2026-04-25 20:45 | 54.33484 | -3.05187 | 22194 ft | 418 kts | 159° |
| 2026-04-25 20:45 | 54.30788 | -3.03196 | 21632 ft | 414 kts | 159° |
| 2026-04-25 20:45 | 54.28177 | -3.01273 | 21098 ft | 413 kts | 159° |
| 2026-04-25 20:46 | 54.25552 | -2.99345 | 20551 ft | 408 kts | 159° |
| 2026-04-25 20:46 | 54.23027 | -2.97206 | 20017 ft | 405 kts | 149° |
| 2026-04-25 20:46 | 54.20686 | -2.94536 | 19488 ft | 404 kts | 148° |
| 2026-04-25 20:46 | 54.18349 | -2.91870 | 18950 ft | 403 kts | 148° |
| 2026-04-25 20:47 | 54.16018 | -2.89254 | 18412 ft | 399 kts | 148° |
| 2026-04-25 20:47 | 54.13708 | -2.86682 | 17864 ft | 394 kts | 148° |
| 2026-04-25 20:47 | 54.11430 | -2.84135 | 17352 ft | 389 kts | 148° |
| 2026-04-25 20:47 | 54.09188 | -2.81615 | 16877 ft | 384 kts | 148° |
| 2026-04-25 20:48 | 54.06980 | -2.79149 | 16594 ft | 375 kts | 148° |
| 2026-04-25 20:48 | 54.04818 | -2.76744 | 16358 ft | 368 kts | 148° |
| 2026-04-25 20:48 | 54.02699 | -2.74382 | 16284 ft | 361 kts | 148° |
| 2026-04-25 20:48 | 54.00609 | -2.72055 | 16245 ft | 358 kts | 148° |
| 2026-04-25 20:49 | 53.98529 | -2.69747 | 15962 ft | 357 kts | 148° |
| 2026-04-25 20:49 | 53.96463 | -2.67446 | 15417 ft | 351 kts | 148° |
| 2026-04-25 20:49 | 53.94456 | -2.65224 | 14873 ft | 338 kts | 148° |
| 2026-04-25 20:49 | 53.92522 | -2.63082 | 14361 ft | 326 kts | 148° |
| 2026-04-25 20:50 | 53.90644 | -2.61005 | 13836 ft | 318 kts | 148° |
| 2026-04-25 20:50 | 53.88811 | -2.58981 | 13275 ft | 312 kts | 148° |
| 2026-04-25 20:50 | 53.87008 | -2.56992 | 12725 ft | 306 kts | 148° |
| 2026-04-25 20:50 | 53.85240 | -2.55041 | 12213 ft | 300 kts | 147° |
| 2026-04-25 20:51 | 53.83506 | -2.53127 | 11727 ft | 296 kts | 148° |
| 2026-04-25 20:51 | 53.81782 | -2.51235 | 11260 ft | 294 kts | 148° |
| 2026-04-25 20:51 | 53.80071 | -2.49354 | 10777 ft | 292 kts | 148° |
| 2026-04-25 20:51 | 53.78374 | -2.47483 | 10331 ft | 291 kts | 147° |
| 2026-04-25 20:52 | 53.76681 | -2.45635 | 9849 ft | 289 kts | 148° |
| 2026-04-25 20:52 | 53.75540 | -2.44388 | 9507 ft | 288 kts | 147° |
| 2026-04-25 20:52 | 53.73334 | -2.41950 | 8855 ft | 285 kts | 148° |
| 2026-04-25 20:52 | 53.71677 | -2.40156 | 8401 ft | 280 kts | 148° |
| 2026-04-25 20:53 | 53.70046 | -2.38370 | 7975 ft | 279 kts | 148° |
| 2026-04-25 20:53 | 53.68420 | -2.36592 | 7554 ft | 275 kts | 148° |
| 2026-04-25 20:53 | 53.66852 | -2.34905 | 7297 ft | 258 kts | 152° |
| 2026-04-25 20:53 | 53.65181 | -2.34391 | 7230 ft | 242 kts | 191° |
| 2026-04-25 20:54 | 53.63703 | -2.35613 | 7229 ft | 237 kts | 216° |
| 2026-04-25 20:54 | 53.62381 | -2.37294 | 7224 ft | 238 kts | 219° |
| 2026-04-25 20:54 | 53.61090 | -2.39053 | 7222 ft | 240 kts | 220° |
| 2026-04-25 20:54 | 53.59800 | -2.40823 | 7219 ft | 239 kts | 220° |
| 2026-04-25 20:55 | 53.58516 | -2.42590 | 7224 ft | 238 kts | 220° |
| 2026-04-25 20:55 | 53.57238 | -2.44354 | 7225 ft | 237 kts | 220° |
| 2026-04-25 20:55 | 53.55963 | -2.46108 | 7224 ft | 237 kts | 220° |
| 2026-04-25 20:55 | 53.54683 | -2.47877 | 7096 ft | 239 kts | 220° |
| 2026-04-25 20:56 | 53.53403 | -2.49643 | 6853 ft | 237 kts | 220° |
| 2026-04-25 20:56 | 53.52128 | -2.51402 | 6613 ft | 237 kts | 219° |
| 2026-04-25 20:56 | 53.50865 | -2.53142 | 6357 ft | 233 kts | 220° |
| 2026-04-25 20:56 | 53.49625 | -2.54859 | 6282 ft | 232 kts | 219° |
| 2026-04-25 20:57 | 53.48376 | -2.56584 | 6237 ft | 232 kts | 220° |
| 2026-04-25 20:57 | 53.47132 | -2.58318 | 6235 ft | 233 kts | 217° |
| 2026-04-25 20:57 | 53.45636 | -2.59310 | 6223 ft | 234 kts | 192° |
| 2026-04-25 20:57 | 53.44039 | -2.59808 | 6228 ft | 233 kts | 191° |
| 2026-04-25 20:58 | 53.42439 | -2.60255 | 6228 ft | 232 kts | 190° |
| 2026-04-25 20:58 | 53.40843 | -2.60696 | 6180 ft | 234 kts | 189° |
| 2026-04-25 20:58 | 53.39214 | -2.61134 | 5965 ft | 239 kts | 190° |
| 2026-04-25 20:58 | 53.37590 | -2.61584 | 5706 ft | 233 kts | 190° |
| 2026-04-25 20:59 | 53.35999 | -2.62021 | 5449 ft | 231 kts | 189° |
| 2026-04-25 20:59 | 53.34414 | -2.62470 | 5202 ft | 232 kts | 190° |
| 2026-04-25 20:59 | 53.32842 | -2.62935 | 5075 ft | 229 kts | 189° |
| 2026-04-25 20:59 | 53.31292 | -2.63390 | 5034 ft | 229 kts | 190° |
| 2026-04-25 21:00 | 53.29710 | -2.63847 | 4975 ft | 233 kts | 190° |
| 2026-04-25 21:00 | 53.29168 | -2.64005 | 4892 ft | 236 kts | 189° |
| 2026-04-25 21:00 | 53.25045 | -2.63870 | 4132 ft | 225 kts | 153° |
| 2026-04-25 21:01 | 53.23674 | -2.62609 | 3806 ft | 223 kts | 149° |
| 2026-04-25 21:01 | 53.22701 | -2.60696 | 3584 ft | 220 kts | 108° |
| 2026-04-25 21:01 | 53.22626 | -2.59002 | 3536 ft | 217 kts | 85° |
| 2026-04-25 21:01 | 53.22943 | -2.55760 | 3502 ft | 208 kts | 81° |
| 2026-04-25 21:02 | 53.23132 | -2.54190 | 3500 ft | 201 kts | 79° |
| 2026-04-25 21:02 | 53.23489 | -2.51968 | 3334 ft | 196 kts | 69° |
| 2026-04-25 21:02 | 53.24171 | -2.50096 | 3072 ft | 187 kts | 54° |
| 2026-04-25 21:02 | 53.24963 | -2.48345 | 2830 ft | 192 kts | 54° |
| 2026-04-25 21:03 | 53.25809 | -2.46622 | 2565 ft | 191 kts | 52° |
| 2026-04-25 21:03 | 53.26629 | -2.44940 | 2313 ft | 183 kts | 54° |
| 2026-04-25 21:03 | 53.27395 | -2.43290 | 2077 ft | 178 kts | 53° |
| 2026-04-25 21:03 | 53.28153 | -2.41697 | 1830 ft | 170 kts | 54° |
| 2026-04-25 21:04 | 53.28849 | -2.40267 | 1609 ft | 153 kts | 54° |
| 2026-04-25 21:04 | 53.29509 | -2.38872 | 1404 ft | 155 kts | 54° |
| 2026-04-25 21:04 | 53.30136 | -2.37575 | 1208 ft | 127 kts | 54° |
| 2026-04-25 21:04 | 53.30639 | -2.36492 | 1037 ft | 112 kts | 53° |
| 2026-04-25 21:05 | 53.31108 | -2.35514 | 888 ft | 104 kts | 55° |
| 2026-04-25 21:05 | 53.31557 | -2.34589 | 744 ft | 101 kts | 51° |
| 2026-04-25 21:05 | 53.31974 | -2.33693 | 614 ft | 96 kts | 51° |
| 2026-04-25 21:05 | 53.32383 | -2.32797 | 511 ft | 97 kts | 54° |
| 2026-04-25 21:06 | 53.32785 | -2.31915 | 367 ft | 92 kts | 52° |
| 2026-04-25 21:06 | 53.33187 | -2.31089 | 256 ft | 91 kts | 50° |
| 2026-04-25 21:06 | 53.33572 | -2.30291 | 202 ft | 82 kts | 50° |
| 2026-04-25 21:06 | 53.33788 | -2.29847 | 204 ft | 64 kts | 51° |
| 2026-04-25 21:07 | 53.34079 | -2.29242 | 211 ft | 40 kts | 50° |
| 2026-04-25 21:07 | 53.34232 | -2.28928 | 214 ft | 32 kts | 51° |
| 2026-04-25 21:07 | 53.34375 | -2.28663 | 215 ft | 29 kts | 38° |
| 2026-04-25 21:07 | 53.34533 | -2.28518 | 219 ft | 23 kts | 21° |
| 2026-04-25 21:08 | 53.34660 | -2.28436 | 220 ft | 18 kts | 21° |
| 2026-04-25 21:08 | 53.34756 | -2.28311 | 221 ft | 17 kts | 52° |
| 2026-04-25 21:08 | 53.34822 | -2.28175 | 223 ft | 8 kts | 51° |
| 2026-04-25 21:08 | 53.34825 | -2.28167 | 223 ft | 0 kts | 51° |
| 2026-04-25 21:09 | 53.34860 | -2.28096 | 224 ft | 8 kts | 51° |
| 2026-04-25 21:09 | 53.34896 | -2.28020 | 225 ft | 9 kts | 51° |
| 2026-04-25 21:09 | 53.34966 | -2.27876 | 226 ft | 19 kts | 51° |
| 2026-04-25 21:10 | 53.35047 | -2.27709 | 228 ft | 18 kts | 51° |
| 2026-04-25 21:10 | 53.35122 | -2.27552 | 231 ft | 17 kts | 51° |
| 2026-04-25 21:10 | 53.35193 | -2.27402 | 232 ft | 16 kts | 51° |
| 2026-04-25 21:10 | 53.35264 | -2.27258 | 233 ft | 16 kts | 50° |
| 2026-04-25 21:11 | 53.35341 | -2.27194 | 234 ft | 12 kts | 359° |
| 2026-04-25 21:11 | 53.35417 | -2.27247 | 235 ft | 12 kts | 321° |
| 2026-04-25 21:11 | 53.35485 | -2.27339 | 236 ft | 13 kts | 320° |
| 2026-04-25 21:11 | 53.35556 | -2.27436 | 236 ft | 10 kts | 321° |
| 2026-04-25 21:12 | 53.35571 | -2.27456 | 236 ft | 0 kts | 321° |
| 2026-04-25 21:12 | 53.35578 | -2.27465 | 234 ft | 1 kts | 320° |
| 2026-04-25 21:12 | 53.35580 | -2.27468 | 234 ft | 0 kts | 321° |
| 2026-04-25 21:13 | 53.35591 | -2.27483 | 234 ft | 7 kts | 321° |
| 2026-04-25 21:14 | 53.35646 | -2.27558 | 234 ft | 11 kts | 321° |
| 2026-04-25 21:14 | 53.35702 | -2.27622 | 234 ft | 9 kts | 336° |
| 2026-04-25 21:14 | 53.35762 | -2.27662 | 234 ft | 10 kts | 334° |
| 2026-04-25 21:14 | 53.35818 | -2.27741 | 234 ft | 11 kts | 311° |
| 2026-04-25 21:15 | 53.35869 | -2.27835 | 234 ft | 11 kts | 323° |
| 2026-04-25 21:15 | 53.35944 | -2.27844 | 236 ft | 11 kts | 3° |
| 2026-04-25 21:15 | 53.36024 | -2.27834 | 235 ft | 10 kts | 359° |
| 2026-04-25 21:15 | 53.36091 | -2.27884 | 235 ft | 11 kts | 321° |
| 2026-04-25 21:16 | 53.36144 | -2.27977 | 237 ft | 11 kts | 311° |
| 2026-04-25 21:16 | 53.36200 | -2.28070 | 235 ft | 12 kts | 315° |
| 2026-04-25 21:16 | 53.36261 | -2.28178 | 235 ft | 14 kts | 315° |
| 2026-04-25 21:16 | 53.36333 | -2.28296 | 238 ft | 15 kts | 314° |
| 2026-04-25 21:17 | 53.36410 | -2.28427 | 235 ft | 15 kts | 314° |
| 2026-04-25 21:17 | 53.36471 | -2.28530 | 234 ft | 12 kts | 315° |
| 2026-04-25 21:17 | 53.36532 | -2.28632 | 234 ft | 11 kts | 315° |
| 2026-04-25 21:17 | 53.36570 | -2.28718 | 234 ft | 8 kts | 292° |
| 2026-04-25 21:18 | 53.36592 | -2.28814 | 234 ft | 9 kts | 294° |